sensor_id;sensor_type;location;lat;lon;timestamp;temperature;humidity
58582;DHT22;44361;51.476;5.700;2022-12-18T00:00:43;-5.30;99.90
58582;DHT22;44361;51.476;5.700;2022-12-18T00:03:09;-5.20;99.90
58582;DHT22;44361;51.476;5.700;2022-12-18T00:05:35;-5.20;99.90
58582;DHT22;44361;51.476;5.700;2022-12-18T00:08:02;-5.30;99.90
58582;DHT22;44361;51.476;5.700;2022-12-18T00:10:28;-5.30;99.90
58582;DHT22;44361;51.476;5.700;2022-12-18T00:12:54;-5.30;99.90
58582;DHT22;44361;51.476;5.700;2022-12-18T00:15:20;-5.30;99.90
58582;DHT22;44361;51.476;5.700;2022-12-18T00:17:46;-5.40;99.90
58582;DHT22;44361;51.476;5.700;2022-12-18T00:20:11;-5.40;99.90
58582;DHT22;44361;51.476;5.700;2022-12-18T00:22:37;-5.40;99.90
58582;DHT22;44361;51.476;5.700;2022-12-18T00:25:03;-5.40;99.90
58582;DHT22;44361;51.476;5.700;2022-12-18T00:27:28;-5.40;99.90
58582;DHT22;44361;51.476;5.700;2022-12-18T00:29:54;-5.40;99.90
58582;DHT22;44361;51.476;5.700;2022-12-18T00:32:19;-5.40;99.90
58582;DHT22;44361;51.476;5.700;2022-12-18T00:34:45;-5.50;99.90
58582;DHT22;44361;51.476;5.700;2022-12-18T00:37:10;-5.50;99.90
58582;DHT22;44361;51.476;5.700;2022-12-18T00:39:37;-5.50;99.90
58582;DHT22;44361;51.476;5.700;2022-12-18T00:42:03;-5.50;99.90
58582;DHT22;44361;51.476;5.700;2022-12-18T00:44:47;-5.50;99.90
58582;DHT22;44361;51.476;5.700;2022-12-18T00:47:14;-5.50;99.90
58582;DHT22;44361;51.476;5.700;2022-12-18T00:49:39;-5.70;99.90
58582;DHT22;44361;51.476;5.700;2022-12-18T00:52:05;-5.70;99.90
58582;DHT22;44361;51.476;5.700;2022-12-18T00:54:30;-5.70;99.90
58582;DHT22;44361;51.476;5.700;2022-12-18T00:56:56;-5.70;99.90
58582;DHT22;44361;51.476;5.700;2022-12-18T00:59:21;-5.80;99.90
58582;DHT22;44361;51.476;5.700;2022-12-18T01:01:47;-5.80;99.90
58582;DHT22;44361;51.476;5.700;2022-12-18T01:04:13;-5.70;99.90
58582;DHT22;44361;51.476;5.700;2022-12-18T01:06:39;-5.80;99.90
58582;DHT22;44361;51.476;5.700;2022-12-18T01:09:05;-5.80;99.90
58582;DHT22;44361;51.476;5.700;2022-12-18T01:11:30;-5.90;99.90
58582;DHT22;44361;51.476;5.700;2022-12-18T01:13:56;-5.90;99.90
58582;DHT22;44361;51.476;5.700;2022-12-18T01:16:22;-5.80;99.90
58582;DHT22;44361;51.476;5.700;2022-12-18T01:18:51;-5.80;99.90
58582;DHT22;44361;51.476;5.700;2022-12-18T01:21:19;-5.80;99.90
58582;DHT22;44361;51.476;5.700;2022-12-18T01:23:45;-5.90;99.90
58582;DHT22;44361;51.476;5.700;2022-12-18T01:26:14;-5.80;99.90
58582;DHT22;44361;51.476;5.700;2022-12-18T01:28:40;-5.80;99.90
58582;DHT22;44361;51.476;5.700;2022-12-18T01:33:41;-5.80;99.90
58582;DHT22;44361;51.476;5.700;2022-12-18T01:36:07;-5.90;99.90
58582;DHT22;44361;51.476;5.700;2022-12-18T01:38:33;-6.00;99.90
58582;DHT22;44361;51.476;5.700;2022-12-18T01:41:00;-6.00;99.90
58582;DHT22;44361;51.476;5.700;2022-12-18T01:46:07;-6.00;99.90
58582;DHT22;44361;51.476;5.700;2022-12-18T01:48:33;-6.00;99.90
58582;DHT22;44361;51.476;5.700;2022-12-18T01:50:59;-6.00;99.90
58582;DHT22;44361;51.476;5.700;2022-12-18T01:53:25;-6.00;99.90
58582;DHT22;44361;51.476;5.700;2022-12-18T01:55:58;-6.10;99.90
58582;DHT22;44361;51.476;5.700;2022-12-18T02:01:13;-6.00;99.90
58582;DHT22;44361;51.476;5.700;2022-12-18T02:03:42;-6.10;99.90
58582;DHT22;44361;51.476;5.700;2022-12-18T02:06:16;-6.10;99.90
58582;DHT22;44361;51.476;5.700;2022-12-18T02:09:01;-6.10;99.90
58582;DHT22;44361;51.476;5.700;2022-12-18T02:11:39;-6.20;99.90
58582;DHT22;44361;51.476;5.700;2022-12-18T02:17:03;-6.20;99.90
58582;DHT22;44361;51.476;5.700;2022-12-18T02:20:01;-6.20;99.90
58582;DHT22;44361;51.476;5.700;2022-12-18T02:25:38;-6.20;99.90
58582;DHT22;44361;51.476;5.700;2022-12-18T02:28:09;-6.20;99.90
58582;DHT22;44361;51.476;5.700;2022-12-18T02:30:37;-6.30;99.90
58582;DHT22;44361;51.476;5.700;2022-12-18T02:33:06;-6.30;99.90
58582;DHT22;44361;51.476;5.700;2022-12-18T02:35:33;-6.30;99.90
58582;DHT22;44361;51.476;5.700;2022-12-18T02:38:00;-6.30;99.90
58582;DHT22;44361;51.476;5.700;2022-12-18T02:40:27;-6.30;99.90
58582;DHT22;44361;51.476;5.700;2022-12-18T02:42:53;-6.30;99.90
58582;DHT22;44361;51.476;5.700;2022-12-18T02:45:19;-6.30;99.90
58582;DHT22;44361;51.476;5.700;2022-12-18T02:47:47;-6.30;99.90
58582;DHT22;44361;51.476;5.700;2022-12-18T02:50:35;-6.30;99.90
58582;DHT22;44361;51.476;5.700;2022-12-18T02:56:17;-6.40;99.90
58582;DHT22;44361;51.476;5.700;2022-12-18T02:59:25;-6.40;99.90
58582;DHT22;44361;51.476;5.700;2022-12-18T03:02:06;-6.30;99.90
58582;DHT22;44361;51.476;5.700;2022-12-18T03:04:43;-6.30;99.90
58582;DHT22;44361;51.476;5.700;2022-12-18T03:07:21;-6.30;99.90
58582;DHT22;44361;51.476;5.700;2022-12-18T03:09:50;-6.30;99.90
58582;DHT22;44361;51.476;5.700;2022-12-18T03:12:31;-6.30;99.90
58582;DHT22;44361;51.476;5.700;2022-12-18T03:15:13;-6.30;99.90
58582;DHT22;44361;51.476;5.700;2022-12-18T03:17:44;-6.30;99.90
58582;DHT22;44361;51.476;5.700;2022-12-18T03:20:18;-6.30;99.90
58582;DHT22;44361;51.476;5.700;2022-12-18T03:22:48;-6.20;99.90
58582;DHT22;44361;51.476;5.700;2022-12-18T03:25:16;-6.20;99.90
58582;DHT22;44361;51.476;5.700;2022-12-18T03:27:49;-6.30;99.90
58582;DHT22;44361;51.476;5.700;2022-12-18T03:30:15;-6.30;99.90
58582;DHT22;44361;51.476;5.700;2022-12-18T03:33:08;-6.20;99.90
58582;DHT22;44361;51.476;5.700;2022-12-18T03:35:38;-6.20;99.90
58582;DHT22;44361;51.476;5.700;2022-12-18T03:38:06;-6.10;99.90
58582;DHT22;44361;51.476;5.700;2022-12-18T03:40:41;-6.10;99.90
58582;DHT22;44361;51.476;5.700;2022-12-18T03:46:05;-6.20;99.90
58582;DHT22;44361;51.476;5.700;2022-12-18T03:48:38;-6.10;99.90
58582;DHT22;44361;51.476;5.700;2022-12-18T03:51:15;-6.10;99.90
58582;DHT22;44361;51.476;5.700;2022-12-18T03:53:53;-6.10;99.90
58582;DHT22;44361;51.476;5.700;2022-12-18T03:56:25;-6.10;99.90
58582;DHT22;44361;51.476;5.700;2022-12-18T03:58:54;-6.10;99.90
58582;DHT22;44361;51.476;5.700;2022-12-18T04:01:25;-6.10;99.90
58582;DHT22;44361;51.476;5.700;2022-12-18T04:03:51;-6.10;99.90
58582;DHT22;44361;51.476;5.700;2022-12-18T04:06:18;-6.00;99.90
58582;DHT22;44361;51.476;5.700;2022-12-18T04:08:44;-6.00;99.90
58582;DHT22;44361;51.476;5.700;2022-12-18T04:11:11;-5.90;99.90
58582;DHT22;44361;51.476;5.700;2022-12-18T04:13:38;-6.00;99.90
58582;DHT22;44361;51.476;5.700;2022-12-18T04:16:05;-6.10;99.90
58582;DHT22;44361;51.476;5.700;2022-12-18T04:18:31;-6.10;99.90
58582;DHT22;44361;51.476;5.700;2022-12-18T04:20:56;-6.10;99.90
58582;DHT22;44361;51.476;5.700;2022-12-18T04:23:22;-6.10;99.90
58582;DHT22;44361;51.476;5.700;2022-12-18T04:25:48;-6.10;99.90
58582;DHT22;44361;51.476;5.700;2022-12-18T04:28:13;-6.20;99.90
58582;DHT22;44361;51.476;5.700;2022-12-18T04:30:39;-6.00;99.90
58582;DHT22;44361;51.476;5.700;2022-12-18T04:33:09;-6.10;99.90
58582;DHT22;44361;51.476;5.700;2022-12-18T04:35:35;-6.10;99.90
58582;DHT22;44361;51.476;5.700;2022-12-18T04:38:00;-6.10;99.90
58582;DHT22;44361;51.476;5.700;2022-12-18T04:40:26;-6.10;99.90
58582;DHT22;44361;51.476;5.700;2022-12-18T04:42:53;-6.10;99.90
58582;DHT22;44361;51.476;5.700;2022-12-18T04:45:19;-6.10;99.90
58582;DHT22;44361;51.476;5.700;2022-12-18T04:47:45;-6.00;99.90
58582;DHT22;44361;51.476;5.700;2022-12-18T04:50:10;-6.00;99.90
58582;DHT22;44361;51.476;5.700;2022-12-18T04:52:36;-6.00;99.90
58582;DHT22;44361;51.476;5.700;2022-12-18T04:55:02;-6.00;99.90
58582;DHT22;44361;51.476;5.700;2022-12-18T04:57:28;-6.10;99.90
58582;DHT22;44361;51.476;5.700;2022-12-18T04:59:54;-6.00;99.90
58582;DHT22;44361;51.476;5.700;2022-12-18T05:02:19;-6.10;99.90
58582;DHT22;44361;51.476;5.700;2022-12-18T05:04:46;-6.10;99.90
58582;DHT22;44361;51.476;5.700;2022-12-18T05:07:12;-6.10;99.90
58582;DHT22;44361;51.476;5.700;2022-12-18T05:09:37;-6.10;99.90
58582;DHT22;44361;51.476;5.700;2022-12-18T05:12:03;-6.20;99.90
58582;DHT22;44361;51.476;5.700;2022-12-18T05:14:28;-6.20;99.90
58582;DHT22;44361;51.476;5.700;2022-12-18T05:16:54;-6.30;99.90
58582;DHT22;44361;51.476;5.700;2022-12-18T05:19:22;-6.40;99.90
58582;DHT22;44361;51.476;5.700;2022-12-18T05:21:47;-6.40;99.90
58582;DHT22;44361;51.476;5.700;2022-12-18T05:24:13;-6.40;99.90
58582;DHT22;44361;51.476;5.700;2022-12-18T05:26:39;-6.40;99.90
58582;DHT22;44361;51.476;5.700;2022-12-18T05:29:04;-6.40;99.90
58582;DHT22;44361;51.476;5.700;2022-12-18T05:31:30;-6.40;99.90
58582;DHT22;44361;51.476;5.700;2022-12-18T05:33:57;-6.50;99.90
58582;DHT22;44361;51.476;5.700;2022-12-18T05:36:23;-6.50;99.90
58582;DHT22;44361;51.476;5.700;2022-12-18T05:38:49;-6.50;99.90
58582;DHT22;44361;51.476;5.700;2022-12-18T05:41:14;-6.40;99.90
58582;DHT22;44361;51.476;5.700;2022-12-18T05:43:40;-6.40;99.90
58582;DHT22;44361;51.476;5.700;2022-12-18T05:46:07;-6.30;99.90
58582;DHT22;44361;51.476;5.700;2022-12-18T05:48:34;-6.30;99.90
58582;DHT22;44361;51.476;5.700;2022-12-18T05:51:08;-6.20;99.90
58582;DHT22;44361;51.476;5.700;2022-12-18T05:53:34;-6.10;99.90
58582;DHT22;44361;51.476;5.700;2022-12-18T05:56:02;-6.00;99.90
58582;DHT22;44361;51.476;5.700;2022-12-18T05:58:28;-5.90;99.90
58582;DHT22;44361;51.476;5.700;2022-12-18T06:00:53;-5.90;99.90
58582;DHT22;44361;51.476;5.700;2022-12-18T06:03:19;-5.90;99.90
58582;DHT22;44361;51.476;5.700;2022-12-18T06:05:45;-5.90;99.90
58582;DHT22;44361;51.476;5.700;2022-12-18T06:08:12;-5.90;99.90
58582;DHT22;44361;51.476;5.700;2022-12-18T06:10:38;-5.90;99.90
58582;DHT22;44361;51.476;5.700;2022-12-18T06:13:05;-5.90;99.90
58582;DHT22;44361;51.476;5.700;2022-12-18T06:15:31;-5.80;99.90
58582;DHT22;44361;51.476;5.700;2022-12-18T06:17:56;-5.90;99.90
58582;DHT22;44361;51.476;5.700;2022-12-18T06:20:22;-5.90;99.90
58582;DHT22;44361;51.476;5.700;2022-12-18T06:22:48;-5.90;99.90
58582;DHT22;44361;51.476;5.700;2022-12-18T06:25:13;-5.90;99.90
58582;DHT22;44361;51.476;5.700;2022-12-18T06:27:39;-5.90;99.90
58582;DHT22;44361;51.476;5.700;2022-12-18T06:30:06;-5.90;99.90
58582;DHT22;44361;51.476;5.700;2022-12-18T06:32:32;-5.90;99.90
58582;DHT22;44361;51.476;5.700;2022-12-18T06:35:00;-5.90;99.90
58582;DHT22;44361;51.476;5.700;2022-12-18T06:37:26;-5.90;99.90
58582;DHT22;44361;51.476;5.700;2022-12-18T06:39:52;-6.00;99.90
58582;DHT22;44361;51.476;5.700;2022-12-18T06:42:18;-6.00;99.90
58582;DHT22;44361;51.476;5.700;2022-12-18T06:44:44;-6.00;99.90
58582;DHT22;44361;51.476;5.700;2022-12-18T06:47:11;-6.00;99.90
58582;DHT22;44361;51.476;5.700;2022-12-18T06:49:36;-6.10;99.90
58582;DHT22;44361;51.476;5.700;2022-12-18T06:52:02;-6.00;99.90
58582;DHT22;44361;51.476;5.700;2022-12-18T06:54:29;-6.10;99.90
58582;DHT22;44361;51.476;5.700;2022-12-18T06:56:55;-6.10;99.90
58582;DHT22;44361;51.476;5.700;2022-12-18T06:59:20;-6.00;99.90
58582;DHT22;44361;51.476;5.700;2022-12-18T07:01:46;-6.10;99.90
58582;DHT22;44361;51.476;5.700;2022-12-18T07:04:13;-6.20;99.90
58582;DHT22;44361;51.476;5.700;2022-12-18T07:06:38;-6.20;99.90
58582;DHT22;44361;51.476;5.700;2022-12-18T07:09:04;-6.20;99.90
58582;DHT22;44361;51.476;5.700;2022-12-18T07:11:32;-6.30;99.90
58582;DHT22;44361;51.476;5.700;2022-12-18T07:13:57;-6.30;99.90
58582;DHT22;44361;51.476;5.700;2022-12-18T07:16:23;-6.30;99.90
58582;DHT22;44361;51.476;5.700;2022-12-18T07:18:50;-6.30;99.90
58582;DHT22;44361;51.476;5.700;2022-12-18T07:21:17;-6.30;99.90
58582;DHT22;44361;51.476;5.700;2022-12-18T07:23:44;-6.30;99.90
58582;DHT22;44361;51.476;5.700;2022-12-18T07:26:14;-6.30;99.90
58582;DHT22;44361;51.476;5.700;2022-12-18T07:28:41;-6.40;99.90
58582;DHT22;44361;51.476;5.700;2022-12-18T07:31:16;-6.40;99.90
58582;DHT22;44361;51.476;5.700;2022-12-18T07:33:43;-6.40;99.90
58582;DHT22;44361;51.476;5.700;2022-12-18T07:36:10;-6.40;99.90
58582;DHT22;44361;51.476;5.700;2022-12-18T07:38:36;-6.30;99.90
58582;DHT22;44361;51.476;5.700;2022-12-18T07:41:04;-6.30;99.90
58582;DHT22;44361;51.476;5.700;2022-12-18T07:43:30;-6.20;99.90
58582;DHT22;44361;51.476;5.700;2022-12-18T07:45:55;-6.20;99.90
58582;DHT22;44361;51.476;5.700;2022-12-18T07:48:21;-6.20;99.90
58582;DHT22;44361;51.476;5.700;2022-12-18T07:50:47;-6.10;99.90
58582;DHT22;44361;51.476;5.700;2022-12-18T07:53:12;-6.00;99.90
58582;DHT22;44361;51.476;5.700;2022-12-18T07:55:40;-6.00;99.90
58582;DHT22;44361;51.476;5.700;2022-12-18T07:58:07;-6.00;99.90
58582;DHT22;44361;51.476;5.700;2022-12-18T08:00:35;-6.00;99.90
58582;DHT22;44361;51.476;5.700;2022-12-18T08:03:02;-5.90;99.90
58582;DHT22;44361;51.476;5.700;2022-12-18T08:05:27;-5.80;99.90
58582;DHT22;44361;51.476;5.700;2022-12-18T08:07:54;-5.70;99.90
58582;DHT22;44361;51.476;5.700;2022-12-18T08:10:21;-5.60;99.90
58582;DHT22;44361;51.476;5.700;2022-12-18T08:12:51;-5.50;99.90
58582;DHT22;44361;51.476;5.700;2022-12-18T08:15:17;-5.50;99.90
58582;DHT22;44361;51.476;5.700;2022-12-18T08:17:44;-5.40;99.90
58582;DHT22;44361;51.476;5.700;2022-12-18T08:20:11;-5.20;99.90
58582;DHT22;44361;51.476;5.700;2022-12-18T08:22:39;-5.20;99.90
58582;DHT22;44361;51.476;5.700;2022-12-18T08:25:05;-5.20;99.90
58582;DHT22;44361;51.476;5.700;2022-12-18T08:27:31;-5.10;99.90
58582;DHT22;44361;51.476;5.700;2022-12-18T08:29:57;-5.10;99.90
58582;DHT22;44361;51.476;5.700;2022-12-18T08:32:23;-5.00;99.90
58582;DHT22;44361;51.476;5.700;2022-12-18T08:34:49;-4.90;99.90
58582;DHT22;44361;51.476;5.700;2022-12-18T08:37:14;-4.80;99.90
58582;DHT22;44361;51.476;5.700;2022-12-18T08:39:40;-4.80;99.90
58582;DHT22;44361;51.476;5.700;2022-12-18T08:42:05;-4.70;99.90
58582;DHT22;44361;51.476;5.700;2022-12-18T08:44:50;-4.80;99.90
58582;DHT22;44361;51.476;5.700;2022-12-18T08:47:15;-4.70;99.90
58582;DHT22;44361;51.476;5.700;2022-12-18T08:49:41;-4.60;99.90
58582;DHT22;44361;51.476;5.700;2022-12-18T08:52:06;-4.60;99.90
58582;DHT22;44361;51.476;5.700;2022-12-18T08:54:34;-4.50;99.90
58582;DHT22;44361;51.476;5.700;2022-12-18T08:57:01;-4.50;99.90
58582;DHT22;44361;51.476;5.700;2022-12-18T08:59:27;-4.40;99.90
58582;DHT22;44361;51.476;5.700;2022-12-18T09:01:53;-4.40;99.90
58582;DHT22;44361;51.476;5.700;2022-12-18T09:04:19;-4.30;99.90
58582;DHT22;44361;51.476;5.700;2022-12-18T09:06:45;-4.20;99.90
58582;DHT22;44361;51.476;5.700;2022-12-18T09:09:10;-4.10;99.90
58582;DHT22;44361;51.476;5.700;2022-12-18T09:11:36;-4.00;99.90
58582;DHT22;44361;51.476;5.700;2022-12-18T09:14:02;-4.00;99.90
58582;DHT22;44361;51.476;5.700;2022-12-18T09:16:28;-3.80;99.90
58582;DHT22;44361;51.476;5.700;2022-12-18T09:18:55;-3.80;99.90
58582;DHT22;44361;51.476;5.700;2022-12-18T09:21:27;-3.70;99.90
58582;DHT22;44361;51.476;5.700;2022-12-18T09:23:55;-3.70;99.90
58582;DHT22;44361;51.476;5.700;2022-12-18T09:26:22;-3.60;99.90
58582;DHT22;44361;51.476;5.700;2022-12-18T09:28:47;-3.60;99.90
58582;DHT22;44361;51.476;5.700;2022-12-18T09:31:13;-3.50;99.90
58582;DHT22;44361;51.476;5.700;2022-12-18T09:33:40;-3.50;99.90
58582;DHT22;44361;51.476;5.700;2022-12-18T09:36:08;-3.40;99.90
58582;DHT22;44361;51.476;5.700;2022-12-18T09:38:35;-3.40;99.90
58582;DHT22;44361;51.476;5.700;2022-12-18T09:41:50;-3.30;99.90
58582;DHT22;44361;51.476;5.700;2022-12-18T09:44:13;-3.30;99.90
58582;DHT22;44361;51.476;5.700;2022-12-18T09:46:51;-3.20;99.90
58582;DHT22;44361;51.476;5.700;2022-12-18T09:49:20;-3.10;99.90
58582;DHT22;44361;51.476;5.700;2022-12-18T09:51:59;-3.10;99.90
58582;DHT22;44361;51.476;5.700;2022-12-18T09:54:39;-3.00;99.90
58582;DHT22;44361;51.476;5.700;2022-12-18T09:57:06;-3.00;99.90
58582;DHT22;44361;51.476;5.700;2022-12-18T09:59:38;-2.90;99.90
58582;DHT22;44361;51.476;5.700;2022-12-18T10:02:25;-2.90;99.90
58582;DHT22;44361;51.476;5.700;2022-12-18T10:05:05;-2.80;99.90
58582;DHT22;44361;51.476;5.700;2022-12-18T10:13:34;-2.60;99.90
58582;DHT22;44361;51.476;5.700;2022-12-18T10:16:22;-2.50;99.90
58582;DHT22;44361;51.476;5.700;2022-12-18T10:19:00;-2.40;99.90
58582;DHT22;44361;51.476;5.700;2022-12-18T10:21:34;-2.40;99.90
58582;DHT22;44361;51.476;5.700;2022-12-18T10:24:32;-2.30;99.90
58582;DHT22;44361;51.476;5.700;2022-12-18T10:27:11;-2.20;99.90
58582;DHT22;44361;51.476;5.700;2022-12-18T10:29:38;-2.20;99.90
58582;DHT22;44361;51.476;5.700;2022-12-18T10:32:03;-2.10;99.90
58582;DHT22;44361;51.476;5.700;2022-12-18T10:34:29;-2.10;99.90
58582;DHT22;44361;51.476;5.700;2022-12-18T10:36:54;-2.00;99.90
58582;DHT22;44361;51.476;5.700;2022-12-18T10:39:23;-1.90;99.90
58582;DHT22;44361;51.476;5.700;2022-12-18T10:41:50;-1.90;99.90
58582;DHT22;44361;51.476;5.700;2022-12-18T10:44:19;-1.90;99.90
58582;DHT22;44361;51.476;5.700;2022-12-18T10:46:50;-1.80;99.90
58582;DHT22;44361;51.476;5.700;2022-12-18T10:49:25;-1.80;99.90
58582;DHT22;44361;51.476;5.700;2022-12-18T10:52:11;-1.70;99.90
58582;DHT22;44361;51.476;5.700;2022-12-18T10:54:39;-1.60;99.90
58582;DHT22;44361;51.476;5.700;2022-12-18T10:57:36;-1.60;99.90
58582;DHT22;44361;51.476;5.700;2022-12-18T11:00:29;-1.60;99.90
58582;DHT22;44361;51.476;5.700;2022-12-18T11:02:56;-1.50;99.90
58582;DHT22;44361;51.476;5.700;2022-12-18T11:05:29;-1.40;99.90
58582;DHT22;44361;51.476;5.700;2022-12-18T11:07:57;-1.30;99.90
58582;DHT22;44361;51.476;5.700;2022-12-18T11:10:32;-1.30;99.90
58582;DHT22;44361;51.476;5.700;2022-12-18T11:13:21;-1.30;99.90
58582;DHT22;44361;51.476;5.700;2022-12-18T11:15:49;-1.30;99.90
58582;DHT22;44361;51.476;5.700;2022-12-18T11:18:18;-1.20;99.90
58582;DHT22;44361;51.476;5.700;2022-12-18T11:21:05;-1.30;99.40
58582;DHT22;44361;51.476;5.700;2022-12-18T11:23:31;-1.20;99.90
58582;DHT22;44361;51.476;5.700;2022-12-18T11:26:03;-1.20;99.70
58582;DHT22;44361;51.476;5.700;2022-12-18T11:31:21;-1.10;99.60
58582;DHT22;44361;51.476;5.700;2022-12-18T11:34:04;-1.10;99.50
58582;DHT22;44361;51.476;5.700;2022-12-18T11:36:49;-1.00;99.10
58582;DHT22;44361;51.476;5.700;2022-12-18T11:39:34;-1.00;99.20
58582;DHT22;44361;51.476;5.700;2022-12-18T11:44:50;-0.90;99.20
58582;DHT22;44361;51.476;5.700;2022-12-18T11:47:39;-0.90;98.70
58582;DHT22;44361;51.476;5.700;2022-12-18T11:50:16;-0.80;99.00
58582;DHT22;44361;51.476;5.700;2022-12-18T11:52:43;-0.80;98.90
58582;DHT22;44361;51.476;5.700;2022-12-18T11:58:56;-0.70;98.70
58582;DHT22;44361;51.476;5.700;2022-12-18T12:15:06;-0.50;98.00
58582;DHT22;44361;51.476;5.700;2022-12-18T12:17:49;-0.50;98.20
58582;DHT22;44361;51.476;5.700;2022-12-18T12:20:42;-0.40;98.30
58582;DHT22;44361;51.476;5.700;2022-12-18T12:25:58;-0.30;98.50
58582;DHT22;44361;51.476;5.700;2022-12-18T12:34:04;-0.20;97.80
58582;DHT22;44361;51.476;5.700;2022-12-18T12:39:34;-0.20;97.50
58582;DHT22;44361;51.476;5.700;2022-12-18T12:42:05;-0.30;97.10
58582;DHT22;44361;51.476;5.700;2022-12-18T12:44:56;-0.20;97.80
58582;DHT22;44361;51.476;5.700;2022-12-18T12:47:26;-0.10;97.50
58582;DHT22;44361;51.476;5.700;2022-12-18T12:49:54;-0.10;97.90
58582;DHT22;44361;51.476;5.700;2022-12-18T12:52:35;-0.10;97.10
58582;DHT22;44361;51.476;5.700;2022-12-18T12:55:04;-0.10;96.80
58582;DHT22;44361;51.476;5.700;2022-12-18T12:57:54;-0.10;96.90
58582;DHT22;44361;51.476;5.700;2022-12-18T13:00:21;0.00;97.10
58582;DHT22;44361;51.476;5.700;2022-12-18T13:03:04;-0.10;96.70
58582;DHT22;44361;51.476;5.700;2022-12-18T13:05:53;-0.10;96.90
58582;DHT22;44361;51.476;5.700;2022-12-18T13:08:28;0.00;97.00
58582;DHT22;44361;51.476;5.700;2022-12-18T13:10:55;0.00;97.00
58582;DHT22;44361;51.476;5.700;2022-12-18T13:13:54;0.00;96.60
58582;DHT22;44361;51.476;5.700;2022-12-18T13:16:25;0.00;96.60
58582;DHT22;44361;51.476;5.700;2022-12-18T13:18:56;0.00;96.90
58582;DHT22;44361;51.476;5.700;2022-12-18T13:21:32;0.00;96.40
58582;DHT22;44361;51.476;5.700;2022-12-18T13:24:15;0.00;96.60
58582;DHT22;44361;51.476;5.700;2022-12-18T13:26:47;0.00;96.50
58582;DHT22;44361;51.476;5.700;2022-12-18T13:29:40;0.00;96.30
58582;DHT22;44361;51.476;5.700;2022-12-18T13:32:20;0.00;96.40
58582;DHT22;44361;51.476;5.700;2022-12-18T13:34:46;-0.10;96.30
58582;DHT22;44361;51.476;5.700;2022-12-18T13:37:41;0.00;96.50
58582;DHT22;44361;51.476;5.700;2022-12-18T13:43:22;0.00;96.70
58582;DHT22;44361;51.476;5.700;2022-12-18T13:46:01;-0.10;96.10
58582;DHT22;44361;51.476;5.700;2022-12-18T13:48:29;-0.10;96.10
58582;DHT22;44361;51.476;5.700;2022-12-18T13:51:01;0.00;96.10
58582;DHT22;44361;51.476;5.700;2022-12-18T13:54:02;0.00;96.30
58582;DHT22;44361;51.476;5.700;2022-12-18T13:56:31;0.00;96.40
58582;DHT22;44361;51.476;5.700;2022-12-18T13:59:16;0.00;96.30
58582;DHT22;44361;51.476;5.700;2022-12-18T14:01:57;0.00;96.10
58582;DHT22;44361;51.476;5.700;2022-12-18T14:04:28;0.00;95.90
58582;DHT22;44361;51.476;5.700;2022-12-18T14:07:42;0.00;96.00
58582;DHT22;44361;51.476;5.700;2022-12-18T14:09:49;0.10;96.10
58582;DHT22;44361;51.476;5.700;2022-12-18T14:12:20;0.10;96.10
58582;DHT22;44361;51.476;5.700;2022-12-18T14:17:43;0.10;96.10
58582;DHT22;44361;51.476;5.700;2022-12-18T14:20:14;0.10;96.30
58582;DHT22;44361;51.476;5.700;2022-12-18T14:22:43;0.10;96.00
58582;DHT22;44361;51.476;5.700;2022-12-18T14:27:43;0.10;95.80
58582;DHT22;44361;51.476;5.700;2022-12-18T14:30:26;0.00;95.50
58582;DHT22;44361;51.476;5.700;2022-12-18T14:35:39;0.00;95.60
58582;DHT22;44361;51.476;5.700;2022-12-18T14:40:42;0.00;95.80
58582;DHT22;44361;51.476;5.700;2022-12-18T14:43:19;0.00;95.90
58582;DHT22;44361;51.476;5.700;2022-12-18T14:45:45;0.00;95.80
58582;DHT22;44361;51.476;5.700;2022-12-18T14:48:22;0.00;95.90
58582;DHT22;44361;51.476;5.700;2022-12-18T14:53:34;0.00;95.70
58582;DHT22;44361;51.476;5.700;2022-12-18T14:56:03;0.00;95.50
58582;DHT22;44361;51.476;5.700;2022-12-18T14:58:29;0.00;95.30
58582;DHT22;44361;51.476;5.700;2022-12-18T15:00:55;0.00;95.40
58582;DHT22;44361;51.476;5.700;2022-12-18T15:03:21;0.00;95.40
58582;DHT22;44361;51.476;5.700;2022-12-18T15:05:47;0.00;95.70
58582;DHT22;44361;51.476;5.700;2022-12-18T15:08:29;0.00;95.40
58582;DHT22;44361;51.476;5.700;2022-12-18T15:10:55;0.00;95.40
58582;DHT22;44361;51.476;5.700;2022-12-18T15:13:23;0.00;95.20
58582;DHT22;44361;51.476;5.700;2022-12-18T15:15:50;0.00;95.10
58582;DHT22;44361;51.476;5.700;2022-12-18T15:18:22;0.00;95.00
58582;DHT22;44361;51.476;5.700;2022-12-18T15:20:57;-0.10;94.80
58582;DHT22;44361;51.476;5.700;2022-12-18T15:26:10;0.00;94.80
58582;DHT22;44361;51.476;5.700;2022-12-18T15:28:39;0.00;94.90
58582;DHT22;44361;51.476;5.700;2022-12-18T15:33:39;0.00;94.90
58582;DHT22;44361;51.476;5.700;2022-12-18T15:36:11;0.00;94.90
58582;DHT22;44361;51.476;5.700;2022-12-18T15:38:37;-0.10;94.80
58582;DHT22;44361;51.476;5.700;2022-12-18T15:41:04;-0.10;94.80
58582;DHT22;44361;51.476;5.700;2022-12-18T15:43:31;0.00;95.10
58582;DHT22;44361;51.476;5.700;2022-12-18T15:46:22;0.00;94.70
58582;DHT22;44361;51.476;5.700;2022-12-18T15:48:54;0.00;94.90
58582;DHT22;44361;51.476;5.700;2022-12-18T15:51:30;0.00;94.40
58582;DHT22;44361;51.476;5.700;2022-12-18T15:53:59;0.00;94.40
58582;DHT22;44361;51.476;5.700;2022-12-18T15:56:27;0.00;94.30
58582;DHT22;44361;51.476;5.700;2022-12-18T15:59:16;0.00;94.20
58582;DHT22;44361;51.476;5.700;2022-12-18T16:01:44;0.00;94.20
58582;DHT22;44361;51.476;5.700;2022-12-18T16:04:14;-0.10;93.90
58582;DHT22;44361;51.476;5.700;2022-12-18T16:06:41;0.00;94.30
58582;DHT22;44361;51.476;5.700;2022-12-18T16:09:08;0.00;94.20
58582;DHT22;44361;51.476;5.700;2022-12-18T16:11:37;-0.10;94.20
58582;DHT22;44361;51.476;5.700;2022-12-18T16:14:22;0.00;94.40
58582;DHT22;44361;51.476;5.700;2022-12-18T16:16:51;0.00;94.00
58582;DHT22;44361;51.476;5.700;2022-12-18T16:19:18;-0.10;94.20
58582;DHT22;44361;51.476;5.700;2022-12-18T16:21:45;0.00;94.00
58582;DHT22;44361;51.476;5.700;2022-12-18T16:24:19;-0.10;94.10
58582;DHT22;44361;51.476;5.700;2022-12-18T16:26:50;-0.10;93.90
58582;DHT22;44361;51.476;5.700;2022-12-18T16:29:20;0.00;93.80
58582;DHT22;44361;51.476;5.700;2022-12-18T16:31:57;-0.10;93.90
58582;DHT22;44361;51.476;5.700;2022-12-18T16:34:25;-0.10;93.70
58582;DHT22;44361;51.476;5.700;2022-12-18T16:36:52;0.00;93.90
58582;DHT22;44361;51.476;5.700;2022-12-18T16:39:19;0.00;93.90
58582;DHT22;44361;51.476;5.700;2022-12-18T16:41:46;-0.10;94.10
58582;DHT22;44361;51.476;5.700;2022-12-18T16:44:13;-0.10;94.00
58582;DHT22;44361;51.476;5.700;2022-12-18T16:46:40;-0.10;94.00
58582;DHT22;44361;51.476;5.700;2022-12-18T16:49:08;-0.10;94.20
58582;DHT22;44361;51.476;5.700;2022-12-18T16:51:35;-0.10;94.20
58582;DHT22;44361;51.476;5.700;2022-12-18T16:54:00;-0.10;94.00
58582;DHT22;44361;51.476;5.700;2022-12-18T16:56:26;-0.10;94.30
58582;DHT22;44361;51.476;5.700;2022-12-18T16:58:54;-0.10;94.40
58582;DHT22;44361;51.476;5.700;2022-12-18T17:01:20;-0.10;94.00
58582;DHT22;44361;51.476;5.700;2022-12-18T17:03:53;-0.10;94.10
58582;DHT22;44361;51.476;5.700;2022-12-18T17:06:21;-0.10;94.10
58582;DHT22;44361;51.476;5.700;2022-12-18T17:08:47;0.00;94.10
58582;DHT22;44361;51.476;5.700;2022-12-18T17:11:12;-0.10;94.10
58582;DHT22;44361;51.476;5.700;2022-12-18T17:13:38;-0.10;94.20